Addisleigh Park, New York
Current Conditions -  °F | °C
As of 2:51 PM on Friday 28 Nov 2014 (Local Time) from KJFK Reporting Station
Broken Clouds Broken Clouds  
Wind Chill: 28°   Ceiling: 4600
Heat Index: 38°   Visibility: 10mi
Dew Point: 16°   Wind: 18mph
Humidity: 41%   Direction: 310°NW
Pressure: 30.18"   Gusts: NA
Location:  40.6565°N, 73.7829°W
Report Text: KJFK 281951Z 31016KT 10SM BKN046 03/M09 A3018 RMK AO2 SLP218 T00331089
Loading
Personal Weather Stations






























Interactive Weather Map New forecast layout! Learn more

10-Day Weather Forecast

Advertisements
Track Severe Weather on mobile